Time;durP1;ratioP1;P1;durP2;ratioP2;P2;SDS_P1;SDS_P2;PMS_P1;PMS_P2;Temp;Humidity;BMP_temperature;BMP_pressure;BME280_temperature;BME280_humidity;BME280_pressure;Samples;Min_cycle;Max_cycle;Signal;HPM_P1;HPM_P2
2022/10/30 00:02:36;;;;;;;84.20;39.55;;;11.10;99.90;;;;;;10392605;28;20049;-77
2022/10/30 00:07:36;;;;;;;80.03;40.38;;;10.90;99.90;;;;;;10386571;28;20061;-79
2022/10/30 00:12:37;;;;;;;61.22;34.97;;;10.90;99.90;;;;;;10394948;28;20041;-77
2022/10/30 00:17:37;;;;;;;64.85;35.28;;;10.80;99.90;;;;;;10384315;28;20667;-78
2022/10/30 00:22:38;;;;;;;52.63;31.88;;;10.80;99.90;;;;;;10379118;28;20042;-79
2022/10/30 00:27:38;;;;;;;65.22;37.83;;;10.80;99.90;;;;;;10387141;28;20033;-80
2022/10/30 00:32:39;;;;;;;81.07;42.53;;;10.90;99.90;;;;;;10394841;28;20038;-79
2022/10/30 00:37:39;;;;;;;81.22;38.97;;;10.90;99.90;;;;;;10379840;28;20029;-79
2022/10/30 00:42:40;;;;;;;80.35;38.05;;;10.90;99.90;;;;;;10382149;28;20038;-78
2022/10/30 00:47:54;;;;;;;63.85;34.40;;;10.90;99.90;;;;;;10388140;28;20026;-79
2022/10/30 00:53:06;;;;;;;98.18;42.13;;;10.80;99.90;;;;;;10372493;28;20037;-77
2022/10/30 00:58:10;;;;;;;89.30;43.70;;;10.80;99.90;;;;;;10379409;28;20021;-78
2022/10/30 01:03:10;;;;;;;61.90;34.03;;;10.80;99.90;;;;;;10380593;28;20063;-77
2022/10/30 01:08:11;;;;;;;71.93;34.03;;;10.80;99.90;;;;;;10394757;28;20071;-78
2022/10/30 01:13:12;;;;;;;54.60;29.88;;;10.70;99.90;;;;;;10378813;28;20104;-77
2022/10/30 01:18:30;;;;;;;133.63;42.55;;;10.60;99.90;;;;;;10380072;28;20041;-77
2022/10/30 01:23:39;;;;;;;70.40;33.25;;;10.50;99.90;;;;;;10389553;28;20116;-79
2022/10/30 01:29:12;;;;;;;107.60;39.17;;;10.50;99.90;;;;;;10402211;28;20473;-77
2022/10/30 01:34:27;;;;;;;64.88;34.95;;;10.50;99.90;;;;;;10374960;28;20117;-80
2022/10/30 01:39:32;;;;;;;72.67;34.80;;;10.40;99.90;;;;;;10398343;28;20034;-77
2022/10/30 01:44:33;;;;;;;125.15;40.70;;;10.40;99.90;;;;;;10394889;28;20406;-77
2022/10/30 01:50:02;;;;;;;94.90;38.30;;;10.30;99.90;;;;;;10387568;28;20034;-79
2022/10/30 01:55:05;;;;;;;391.73;67.90;;;10.30;99.90;;;;;;10389578;28;20037;-79
2022/10/30 02:00:12;;;;;;;237.65;44.45;;;10.20;99.90;;;;;;10399111;28;20264;-78
2022/10/30 02:05:30;;;;;;;71.18;35.30;;;10.20;99.90;;;;;;10379613;28;20535;-77
2022/10/30 02:10:33;;;;;;;340.40;62.10;;;10.10;99.90;;;;;;10397610;28;20094;-78
2022/10/30 02:15:35;;;;;;;169.55;42.53;;;10.00;99.90;;;;;;10383490;28;20397;-77
2022/10/30 02:20:36;;;;;;;631.53;86.55;;;10.00;99.90;;;;;;10388925;28;20030;-77
2022/10/30 02:25:37;;;;;;;512.42;76.40;;;9.80;99.90;;;;;;10388442;28;20052;-77
2022/10/30 02:30:38;;;;;;;78.72;37.40;;;9.80;99.90;;;;;;10378121;28;20036;-77
2022/10/30 02:35:38;;;;;;;87.68;37.05;;;9.80;99.90;;;;;;10374279;28;20037;-79
2022/10/30 02:40:39;;;;;;;527.67;72.43;;;9.70;99.90;;;;;;10382882;28;20052;-77
2022/10/30 02:45:39;;;;;;;95.37;42.40;;;9.70;99.90;;;;;;10394556;28;20151;-79
2022/10/30 02:50:40;;;;;;;157.70;44.00;;;9.70;99.90;;;;;;10382554;28;20042;-77
2022/10/30 02:55:40;;;;;;;248.10;48.00;;;9.70;99.90;;;;;;10395945;28;20045;-77
2022/10/30 03:00:41;;;;;;;94.78;39.67;;;9.70;99.90;;;;;;10380144;28;20033;-77
2022/10/30 03:05:42;;;;;;;124.03;46.92;;;9.80;99.90;;;;;;10386516;28;20065;-77
2022/10/30 03:10:43;;;;;;;74.93;38.87;;;9.90;99.90;;;;;;10395302;28;20040;-77
2022/10/30 03:15:43;;;;;;;103.47;44.90;;;10.10;99.90;;;;;;10380512;28;20117;-80
2022/10/30 03:20:44;;;;;;;86.63;39.03;;;10.20;99.90;;;;;;10386485;28;20488;-77
2022/10/30 03:25:44;;;;;;;111.22;45.38;;;10.30;99.90;;;;;;10388106;28;20037;-78
2022/10/30 03:30:45;;;;;;;126.07;49.75;;;10.40;99.90;;;;;;10385961;28;20396;-80
2022/10/30 03:35:45;;;;;;;130.27;52.00;;;10.50;99.90;;;;;;10379646;28;20036;-77
2022/10/30 03:40:46;;;;;;;94.68;43.00;;;10.60;99.90;;;;;;10391536;28;20135;-80
2022/10/30 03:45:52;;;;;;;107.03;43.63;;;10.60;99.90;;;;;;10390159;28;20132;-77
2022/10/30 03:50:54;;;;;;;111.93;42.60;;;10.60;99.90;;;;;;10384595;28;20091;-77
2022/10/30 03:56:00;;;;;;;168.63;53.13;;;10.70;99.90;;;;;;10394798;28;20024;-78
2022/10/30 04:01:05;;;;;;;154.80;52.85;;;10.70;99.90;;;;;;10395994;28;20036;-80
2022/10/30 04:06:06;;;;;;;228.35;62.38;;;10.80;99.90;;;;;;10390065;28;20629;-76
2022/10/30 04:11:10;;;;;;;160.13;52.30;;;10.80;99.90;;;;;;10400015;28;20140;-77
2022/10/30 04:16:10;;;;;;;155.13;52.08;;;10.90;99.90;;;;;;10385815;28;20033;-77
2022/10/30 04:21:11;;;;;;;169.55;52.42;;;10.90;99.90;;;;;;10367290;28;20060;-77
2022/10/30 04:26:11;;;;;;;211.35;55.72;;;10.90;99.90;;;;;;10388706;28;20029;-79
2022/10/30 04:31:12;;;;;;;176.65;53.45;;;11.00;99.90;;;;;;10388930;28;20112;-77
2022/10/30 04:36:12;;;;;;;135.65;46.78;;;11.10;99.90;;;;;;10380106;28;20037;-78
2022/10/30 04:41:13;;;;;;;162.65;51.28;;;11.10;99.90;;;;;;10397068;28;20075;-77
2022/10/30 04:46:13;;;;;;;161.23;50.42;;;11.10;99.90;;;;;;10381933;28;20040;-78
2022/10/30 04:51:14;;;;;;;195.27;54.05;;;11.10;99.90;;;;;;10384712;28;20029;-78
2022/10/30 04:56:15;;;;;;;189.85;49.95;;;11.10;99.90;;;;;;10389190;28;20036;-77
2022/10/30 05:01:16;;;;;;;230.35;58.65;;;11.10;99.90;;;;;;10392167;28;20030;-77
2022/10/30 05:06:23;;;;;;;154.38;51.45;;;11.20;99.90;;;;;;10382523;28;20084;-77
2022/10/30 05:11:24;;;;;;;212.05;58.17;;;11.20;99.90;;;;;;10391102;28;20030;-76
2022/10/30 05:16:24;;;;;;;196.27;56.92;;;11.10;99.90;;;;;;10365731;28;20034;-80
2022/10/30 05:21:25;;;;;;;208.20;57.45;;;11.10;99.90;;;;;;10372289;28;20029;-79
2022/10/30 05:26:26;;;;;;;179.70;54.80;;;11.20;99.90;;;;;;10386360;28;20030;-77
2022/10/30 05:31:26;;;;;;;218.30;61.72;;;11.20;99.90;;;;;;10386217;28;20034;-77
2022/10/30 05:36:27;;;;;;;231.80;62.92;;;11.20;99.90;;;;;;10375502;28;20448;-78
2022/10/30 05:41:28;;;;;;;196.35;55.50;;;11.20;99.90;;;;;;10373983;28;20518;-77
2022/10/30 05:46:29;;;;;;;261.13;67.35;;;11.20;99.90;;;;;;10372730;28;20034;-78
2022/10/30 05:51:29;;;;;;;178.20;53.80;;;11.30;99.90;;;;;;10377767;28;20530;-78
2022/10/30 05:56:30;;;;;;;210.20;59.30;;;11.30;99.90;;;;;;10384268;28;20027;-77
2022/10/30 06:01:30;;;;;;;236.77;60.80;;;11.40;99.90;;;;;;10390268;28;20076;-77
2022/10/30 06:06:31;;;;;;;299.98;99.15;;;11.40;99.90;;;;;;10386890;28;20128;-77
2022/10/30 06:11:32;;;;;;;283.65;83.43;;;11.40;99.90;;;;;;10395892;28;20034;-77
2022/10/30 06:16:32;;;;;;;279.90;93.18;;;11.40;99.90;;;;;;10372456;28;20041;-77
2022/10/30 06:21:33;;;;;;;273.13;81.13;;;11.40;99.90;;;;;;10391027;28;20392;-77
2022/10/30 06:26:33;;;;;;;224.82;63.47;;;11.50;99.90;;;;;;10420385;28;20024;-78
2022/10/30 06:31:34;;;;;;;241.02;70.38;;;11.60;99.90;;;;;;10401315;28;20026;-78
2022/10/30 06:36:35;;;;;;;443.73;131.05;;;11.60;99.90;;;;;;10404528;28;20029;-79
2022/10/30 06:41:35;;;;;;;577.50;159.18;;;11.70;99.90;;;;;;10400191;28;20029;-77
2022/10/30 06:46:36;;;;;;;524.78;153.30;;;11.70;99.90;;;;;;10385068;28;20017;-77
2022/10/30 06:51:36;;;;;;;315.73;84.30;;;11.70;99.90;;;;;;10388964;28;20029;-77
2022/10/30 06:56:37;;;;;;;221.48;56.25;;;11.90;99.90;;;;;;10409065;28;20018;-77
2022/10/30 07:01:37;;;;;;;227.70;68.72;;;11.90;99.90;;;;;;10383771;28;20026;-75
2022/10/30 07:06:38;;;;;;;207.60;60.90;;;11.90;99.90;;;;;;10376771;28;20057;-76
2022/10/30 07:11:44;;;;;;;256.73;71.60;;;11.90;99.90;;;;;;10396402;28;20147;-77
2022/10/30 07:16:44;;;;;;;228.30;71.78;;;12.10;99.90;;;;;;10398660;28;20017;-76
2022/10/30 07:21:45;;;;;;;169.68;53.63;;;12.20;99.90;;;;;;10376540;28;20034;-79
2022/10/30 07:26:45;;;;;;;137.48;49.25;;;12.30;99.90;;;;;;10392959;28;20038;-76
2022/10/30 07:31:48;;;;;;;188.75;54.95;;;12.30;99.90;;;;;;10396793;28;20025;-77
2022/10/30 07:36:48;;;;;;;155.35;51.72;;;12.40;99.90;;;;;;10390247;28;20478;-77
2022/10/30 07:41:49;;;;;;;135.00;50.67;;;12.50;99.90;;;;;;10392732;28;20044;-76
2022/10/30 07:46:50;;;;;;;147.95;52.92;;;12.60;99.90;;;;;;10378312;28;20037;-77
2022/10/30 07:51:50;;;;;;;151.88;54.30;;;12.60;99.90;;;;;;10384994;28;20032;-77
2022/10/30 07:56:51;;;;;;;251.18;81.22;;;12.60;99.90;;;;;;10387300;28;20026;-76
2022/10/30 08:01:52;;;;;;;124.82;43.28;;;12.60;99.90;;;;;;10378659;28;20060;-77
2022/10/30 08:06:52;;;;;;;110.95;43.53;;;12.80;99.90;;;;;;10389065;28;20049;-77
2022/10/30 08:11:53;;;;;;;137.65;53.25;;;12.80;99.90;;;;;;10380538;28;20040;-76
2022/10/30 08:16:53;;;;;;;135.85;51.75;;;13.00;99.90;;;;;;10392863;28;20059;-74
2022/10/30 08:21:55;;;;;;;119.70;51.25;;;13.10;99.90;;;;;;10383772;28;20060;-77
2022/10/30 08:26:56;;;;;;;113.45;48.30;;;13.10;99.90;;;;;;10391570;28;20108;-77
2022/10/30 08:31:56;;;;;;;222.55;84.95;;;13.30;99.90;;;;;;10390408;28;20037;-78
2022/10/30 08:36:58;;;;;;;148.27;58.58;;;13.40;99.90;;;;;;10383650;28;20029;-78
2022/10/30 08:41:59;;;;;;;141.88;62.10;;;13.60;99.90;;;;;;10387563;28;20045;-77
2022/10/30 08:47:00;;;;;;;124.60;61.63;;;13.80;99.90;;;;;;10379947;28;20466;-78
2022/10/30 08:52:00;;;;;;;124.05;57.35;;;14.00;99.90;;;;;;10373704;28;20777;-78
2022/10/30 08:57:01;;;;;;;241.73;99.40;;;14.10;99.90;;;;;;10382503;28;20061;-79
2022/10/30 09:02:01;;;;;;;140.32;69.32;;;14.20;99.90;;;;;;10384619;28;20108;-78
2022/10/30 09:07:02;;;;;;;102.53;50.65;;;14.30;99.90;;;;;;10383679;28;20106;-77
2022/10/30 09:12:03;;;;;;;102.07;50.05;;;14.40;99.90;;;;;;10379938;28;20034;-78
2022/10/30 09:17:03;;;;;;;120.22;57.92;;;14.60;99.90;;;;;;10370901;28;20064;-79
2022/10/30 09:22:04;;;;;;;171.80;77.25;;;14.90;99.90;;;;;;10378546;28;20033;-78
2022/10/30 09:27:05;;;;;;;88.03;45.40;;;15.30;99.90;;;;;;10387823;28;20076;-79
2022/10/30 09:32:09;;;;;;;73.25;39.30;;;15.60;99.90;;;;;;10389610;28;20046;-79
2022/10/30 09:37:10;;;;;;;79.32;44.22;;;15.80;99.90;;;;;;10390170;28;20025;-78
2022/10/30 09:42:36;;;;;;;65.10;36.08;;;16.10;99.90;;;;;;10384658;28;20543;-77
2022/10/30 09:47:47;;;;;;;56.17;33.90;;;16.40;99.90;;;;;;10381433;28;20026;-78
2022/10/30 09:53:15;;;;;;;74.20;43.92;;;16.50;99.90;;;;;;10387368;28;20079;-78
2022/10/30 09:58:18;;;;;;;65.10;36.50;;;16.90;99.90;;;;;;10390408;28;20038;-79
2022/10/30 10:03:22;;;;;;;40.65;25.85;;;17.20;99.90;;;;;;10397681;28;20481;-78
2022/10/30 10:08:41;;;;;;;47.25;26.42;;;17.50;99.90;;;;;;10393451;28;20733;-78
2022/10/30 10:14:07;;;;;;;31.33;19.17;;;17.80;99.90;;;;;;10382730;28;20026;-78
2022/10/30 10:19:13;;;;;;;29.08;17.98;;;18.10;99.90;;;;;;10371436;28;20046;-80
2022/10/30 10:24:22;;;;;;;35.83;21.13;;;18.40;99.90;;;;;;10398013;28;20139;-81
2022/10/30 10:29:35;;;;;;;31.08;19.02;;;18.80;99.90;;;;;;10385375;28;20044;-79
2022/10/30 10:34:54;;;;;;;26.38;16.13;;;19.20;99.90;;;;;;10393743;28;20393;-80
2022/10/30 10:40:01;;;;;;;25.52;16.00;;;19.70;99.90;;;;;;10400780;28;20448;-79
2022/10/30 10:45:26;;;;;;;42.08;21.90;;;19.80;99.90;;;;;;10391996;28;20434;-77
2022/10/30 10:51:06;;;;;;;32.83;17.75;;;19.80;99.90;;;;;;10412109;28;20084;-79
2022/10/30 10:56:09;;;;;;;32.42;18.42;;;19.60;99.90;;;;;;10382208;28;20425;-78
2022/10/30 11:01:16;;;;;;;28.95;15.77;;;19.40;99.90;;;;;;10380099;28;20026;-78
2022/10/30 11:06:38;;;;;;;34.33;21.67;;;19.20;99.90;;;;;;10390826;28;20053;-80
2022/10/30 11:11:39;;;;;;;40.65;22.63;;;19.30;99.90;;;;;;10399252;28;20026;-78
2022/10/30 11:17:23;;;;;;;35.25;20.05;;;19.30;99.90;;;;;;10366776;28;20018;-79
2022/10/30 11:22:28;;;;;;;35.28;21.38;;;19.40;99.90;;;;;;10380020;28;20107;-77
2022/10/30 11:27:29;;;;;;;32.60;19.25;;;19.60;99.90;;;;;;10402842;28;20038;-78
2022/10/30 11:32:32;;;;;;;31.65;19.17;;;19.90;99.90;;;;;;10380864;28;20026;-80
2022/10/30 11:37:36;;;;;;;35.10;19.67;;;19.90;99.90;;;;;;10381202;28;20022;-78
2022/10/30 11:42:48;;;;;;;29.92;16.75;;;19.80;99.90;;;;;;10403462;28;20053;-78
2022/10/30 11:47:49;;;;;;;30.42;16.10;;;19.80;99.90;;;;;;10377472;28;20029;-78
2022/10/30 11:53:09;;;;;;;25.20;15.73;;;19.80;99.90;;;;;;10390817;28;20028;-80
2022/10/30 11:58:30;;;;;;;26.27;14.38;;;20.00;99.90;;;;;;10381973;28;20030;-78
2022/10/30 12:03:40;;;;;;;29.50;16.48;;;20.10;99.90;;;;;;10380551;28;20026;-78
2022/10/30 12:08:40;;;;;;;22.60;13.05;;;20.30;99.90;;;;;;10374401;28;20524;-77
2022/10/30 12:13:41;;;;;;;24.75;12.57;;;20.40;99.90;;;;;;10392655;28;20105;-80
2022/10/30 12:19:01;;;;;;;23.20;12.48;;;20.50;99.90;;;;;;10383697;28;20833;-80
2022/10/30 12:24:05;;;;;;;16.67;10.05;;;20.90;99.90;;;;;;10383737;28;20673;-80
2022/10/30 12:29:14;;;;;;;20.43;10.13;;;21.10;99.90;;;;;;10391432;28;20031;-80
2022/10/30 12:34:40;;;;;;;21.13;10.93;;;21.20;99.90;;;;;;10391677;28;20497;-78
2022/10/30 12:39:44;;;;;;;29.55;15.00;;;21.40;99.90;;;;;;10366333;28;20042;-78
2022/10/30 12:44:50;;;;;;;21.10;11.40;;;21.50;99.90;;;;;;10370968;28;20038;-80
2022/10/30 12:49:59;;;;;;;35.53;14.05;;;21.50;99.00;;;;;;10384899;28;20026;-78
2022/10/30 12:55:21;;;;;;;32.13;12.88;;;21.60;98.40;;;;;;10368470;28;20121;-78
2022/10/30 13:00:24;;;;;;;20.58;9.55;;;21.60;96.80;;;;;;10380157;28;20029;-79
2022/10/30 13:05:34;;;;;;;18.20;9.23;;;21.60;95.80;;;;;;10375582;28;20533;-80
2022/10/30 13:10:53;;;;;;;15.98;9.18;;;21.60;95.10;;;;;;10372722;28;20397;-78
2022/10/30 13:15:56;;;;;;;20.15;10.32;;;21.60;94.70;;;;;;10385888;28;20449;-81
2022/10/30 13:21:00;;;;;;;17.70;9.38;;;21.60;94.40;;;;;;10386176;28;20108;-77
2022/10/30 13:26:04;;;;;;;17.10;8.18;;;21.50;94.30;;;;;;10391585;28;20041;-80
2022/10/30 13:31:23;;;;;;;17.85;8.48;;;21.50;94.50;;;;;;10389231;28;20026;-78
2022/10/30 13:36:35;;;;;;;25.15;12.27;;;21.50;95.00;;;;;;10384812;28;20111;-78
2022/10/30 13:41:50;;;;;;;22.63;10.88;;;21.60;94.70;;;;;;10386572;28;20124;-80
2022/10/30 13:46:51;;;;;;;;;;;21.60;94.40;;;;;;10386281;28;20042;-77
2022/10/30 13:52:04;;;;;;;102.20;51.60;;;21.50;93.20;;;;;;10395881;28;19914;-78
2022/10/30 13:57:16;;;;;;;28.70;14.20;;;21.20;94.40;;;;;;10394235;28;20661;-79
2022/10/30 14:02:38;;;;;;;39.00;19.80;;;21.00;94.70;;;;;;10383432;28;20489;-77
2022/10/30 14:08:09;;;;;;;28.98;16.92;;;20.80;95.60;;;;;;10413762;28;20382;-78
2022/10/30 14:13:27;;;;;;;20.38;11.25;;;20.70;95.80;;;;;;10377844;28;20092;-78
2022/10/30 14:18:31;;;;;;;17.30;9.95;;;20.50;96.00;;;;;;10382195;28;20547;-77
2022/10/30 14:23:34;;;;;;;19.15;9.38;;;20.40;95.90;;;;;;10379373;28;20065;-77
2022/10/30 14:28:36;;;;;;;19.48;9.90;;;20.50;96.30;;;;;;10392895;28;20033;-79
2022/10/30 14:33:48;;;;;;;16.63;10.00;;;20.40;96.20;;;;;;10385489;28;20025;-77
2022/10/30 14:39:20;;;;;;;17.73;11.20;;;20.30;96.30;;;;;;10398534;28;20030;-78
2022/10/30 14:44:39;;;;;;;19.38;11.02;;;20.20;96.60;;;;;;10392322;28;20038;-79
2022/10/30 14:50:00;;;;;;;24.52;12.23;;;20.10;97.30;;;;;;10369732;28;20026;-81
2022/10/30 14:55:38;;;;;;;23.27;13.55;;;19.90;96.70;;;;;;10389306;28;20541;-78
2022/10/30 15:00:41;;;;;;;29.13;14.80;;;19.80;97.20;;;;;;10389673;28;20044;-77
2022/10/30 15:05:48;;;;;;;25.73;14.50;;;19.60;97.80;;;;;;10373375;28;20053;-78
2022/10/30 15:11:18;;;;;;;32.15;16.08;;;19.40;98.20;;;;;;10407264;28;20028;-79
2022/10/30 15:16:21;;;;;;;29.35;15.38;;;19.10;98.80;;;;;;10387748;28;20061;-78
2022/10/30 15:21:27;;;;;;;27.33;15.20;;;18.70;99.70;;;;;;10382807;28;20029;-79
2022/10/30 15:26:35;;;;;;;36.58;19.60;;;18.40;99.90;;;;;;10401004;28;20114;-77
2022/10/30 15:31:35;;;;;;;37.35;22.63;;;18.20;99.90;;;;;;10384703;28;20128;-79
2022/10/30 15:36:45;;;;;;;42.97;21.80;;;17.80;99.90;;;;;;10380454;28;20026;-77
2022/10/30 15:41:55;;;;;;;30.55;17.27;;;17.50;99.90;;;;;;10398147;28;20040;-80
2022/10/30 15:47:00;;;;;;;42.20;25.42;;;17.20;99.90;;;;;;10382987;28;20032;-78
2022/10/30 15:52:22;;;;;;;120.20;75.85;;;17.00;99.90;;;;;;10385902;28;20025;-77
2022/10/30 15:57:32;;;;;;;60.03;38.60;;;16.70;99.90;;;;;;10377792;28;20041;-78
2022/10/30 16:02:33;;;;;;;40.22;27.88;;;16.70;99.90;;;;;;10385195;28;20120;-79
2022/10/30 16:07:33;;;;;;;44.58;28.17;;;16.60;99.90;;;;;;10373666;28;20557;-77
2022/10/30 16:12:34;;;;;;;52.70;38.40;;;16.40;99.90;;;;;;10384329;28;20037;-77
2022/10/30 16:17:35;;;;;;;65.97;44.80;;;16.30;99.90;;;;;;10387720;28;20034;-79
2022/10/30 16:22:38;;;;;;;78.40;53.95;;;16.20;99.90;;;;;;10385604;28;20037;-78
2022/10/30 16:27:45;;;;;;;57.03;37.15;;;16.00;99.90;;;;;;10391899;28;20109;-78
2022/10/30 16:32:51;;;;;;;40.30;24.17;;;16.00;99.90;;;;;;10381894;28;20103;-77
2022/10/30 16:37:52;;;;;;;41.90;23.98;;;15.80;99.90;;;;;;10387635;28;20021;-78
2022/10/30 16:42:58;;;;;;;48.22;26.23;;;15.70;99.90;;;;;;10390789;28;20818;-79
2022/10/30 16:48:07;;;;;;;56.97;30.23;;;15.70;99.90;;;;;;10372685;28;20028;-77
2022/10/30 16:53:21;;;;;;;84.68;45.30;;;15.60;99.90;;;;;;10383907;28;20021;-78
2022/10/30 16:58:26;;;;;;;74.22;41.30;;;15.50;99.90;;;;;;10374964;28;20030;-78
2022/10/30 17:03:28;;;;;;;121.68;65.05;;;15.40;99.90;;;;;;10376078;28;20560;-78
2022/10/30 17:08:33;;;;;;;87.85;48.03;;;15.30;99.90;;;;;;10382393;28;20056;-79
2022/10/30 17:13:57;;;;;;;71.68;44.70;;;15.20;99.90;;;;;;10388520;28;20030;-78
2022/10/30 17:19:00;;;;;;;58.65;35.90;;;15.10;99.90;;;;;;10372616;28;20034;-78
2022/10/30 17:24:01;;;;;;;53.50;32.45;;;15.10;99.90;;;;;;10371932;28;20047;-78
2022/10/30 17:29:02;;;;;;;67.43;39.45;;;15.10;99.90;;;;;;10372253;28;20038;-78
2022/10/30 17:34:17;;;;;;;80.72;42.72;;;15.10;99.90;;;;;;10372265;28;20046;-77
2022/10/30 17:39:17;;;;;;;74.17;42.93;;;15.00;99.90;;;;;;10367537;28;20452;-79
2022/10/30 17:44:22;;;;;;;74.28;44.72;;;14.90;99.90;;;;;;10370224;28;20096;-79
2022/10/30 17:49:28;;;;;;;93.63;59.58;;;14.80;99.90;;;;;;10368075;28;20034;-79
2022/10/30 17:54:28;;;;;;;93.63;58.13;;;14.70;99.90;;;;;;10364004;28;20095;-78
2022/10/30 17:59:29;;;;;;;94.75;59.88;;;14.60;99.90;;;;;;10370556;28;20088;-78
2022/10/30 18:04:29;;;;;;;90.88;58.15;;;14.50;99.90;;;;;;10367417;28;20121;-77
2022/10/30 18:09:30;;;;;;;91.80;58.13;;;14.30;99.90;;;;;;10380117;28;20045;-77
2022/10/30 18:14:31;;;;;;;85.55;56.17;;;14.10;99.90;;;;;;10373989;28;20038;-79
2022/10/30 18:19:31;;;;;;;79.22;50.10;;;14.10;99.90;;;;;;10384689;28;20630;-77
2022/10/30 18:24:32;;;;;;;85.82;52.47;;;14.00;99.90;;;;;;10378529;28;20044;-77
2022/10/30 18:29:32;;;;;;;82.90;52.25;;;13.80;99.90;;;;;;10398693;28;20042;-77
2022/10/30 18:34:33;;;;;;;69.43;43.88;;;13.80;99.90;;;;;;10389960;28;20129;-77
2022/10/30 18:39:34;;;;;;;81.90;50.20;;;13.60;99.90;;;;;;10385617;28;20029;-77
2022/10/30 18:44:34;;;;;;;103.25;67.18;;;13.50;99.90;;;;;;10396644;28;20493;-80
2022/10/30 18:49:35;;;;;;;197.93;136.48;;;13.30;99.90;;;;;;10377810;28;20517;-77
2022/10/30 18:54:35;;;;;;;227.05;153.15;;;13.10;99.90;;;;;;10392273;28;20435;-77
2022/10/30 18:59:36;;;;;;;172.60;115.60;;;13.10;99.90;;;;;;10378436;28;20144;-78
2022/10/30 19:04:36;;;;;;;130.10;86.00;;;13.10;99.90;;;;;;10387573;28;20029;-77
2022/10/30 19:09:37;;;;;;;96.10;60.55;;;13.00;99.90;;;;;;10382400;28;20058;-77
2022/10/30 19:14:37;;;;;;;79.78;49.15;;;13.00;99.90;;;;;;10384909;28;20632;-78
2022/10/30 19:19:38;;;;;;;96.80;57.58;;;12.90;99.90;;;;;;10403263;28;20033;-78
2022/10/30 19:24:39;;;;;;;93.38;53.83;;;12.80;99.90;;;;;;10397892;28;20124;-79
2022/10/30 19:29:39;;;;;;;95.35;55.72;;;12.80;99.90;;;;;;10396495;28;20075;-79
2022/10/30 19:34:44;;;;;;;86.32;53.35;;;12.80;99.90;;;;;;10397143;28;20482;-77
2022/10/30 19:39:45;;;;;;;82.97;50.20;;;12.70;99.90;;;;;;10394869;28;20108;-78
2022/10/30 19:44:45;;;;;;;89.57;51.97;;;12.60;99.90;;;;;;10401779;28;20037;-78
2022/10/30 19:49:46;;;;;;;123.72;69.85;;;12.60;99.90;;;;;;10395284;28;20056;-78
2022/10/30 19:54:46;;;;;;;151.43;95.85;;;12.50;99.90;;;;;;10390871;28;20041;-78
2022/10/30 19:59:47;;;;;;;216.65;143.00;;;12.40;99.90;;;;;;10390356;28;20030;-81
2022/10/30 20:04:48;;;;;;;239.88;160.40;;;12.30;99.90;;;;;;10389167;28;20135;-80
2022/10/30 20:09:48;;;;;;;169.15;110.55;;;12.30;99.90;;;;;;10387241;28;20565;-78
2022/10/30 20:14:49;;;;;;;158.70;98.88;;;12.10;99.90;;;;;;10387360;28;20029;-78
2022/10/30 20:19:49;;;;;;;177.70;112.18;;;12.10;99.90;;;;;;10393481;28;20132;-79
2022/10/30 20:24:50;;;;;;;165.13;112.25;;;12.00;99.90;;;;;;10386017;28;20040;-79
2022/10/30 20:29:50;;;;;;;207.15;133.65;;;12.00;99.90;;;;;;10393722;28;20044;-78
2022/10/30 20:34:51;;;;;;;173.52;105.22;;;11.90;99.90;;;;;;10384232;28;20037;-80
2022/10/30 20:39:51;;;;;;;176.75;103.85;;;11.80;99.90;;;;;;10384900;28;20045;-77
2022/10/30 20:44:52;;;;;;;132.95;79.18;;;11.70;99.90;;;;;;10389416;28;20755;-79
2022/10/30 20:49:52;;;;;;;104.28;57.42;;;11.70;99.90;;;;;;10393654;28;20042;-78
2022/10/30 20:54:53;;;;;;;99.18;57.47;;;11.60;99.90;;;;;;10387050;28;20033;-78
2022/10/30 20:59:53;;;;;;;107.65;56.92;;;11.50;99.90;;;;;;10389013;28;20030;-77
2022/10/30 21:04:54;;;;;;;91.85;50.20;;;11.40;99.90;;;;;;10385088;28;20125;-78
2022/10/30 21:09:54;;;;;;;102.35;56.55;;;11.30;99.90;;;;;;10385124;28;20497;-79
2022/10/30 21:14:55;;;;;;;96.03;52.78;;;11.40;99.90;;;;;;10398273;28;20481;-81
2022/10/30 21:19:55;;;;;;;104.05;58.53;;;11.40;99.90;;;;;;10392987;28;20032;-80
2022/10/30 21:24:57;;;;;;;116.00;65.65;;;11.40;99.90;;;;;;10386550;28;20050;-81
2022/10/30 21:29:58;;;;;;;100.05;56.78;;;11.40;99.90;;;;;;10389191;28;20037;-79
2022/10/30 21:34:58;;;;;;;88.97;48.75;;;11.40;99.90;;;;;;10388039;28;20048;-78
2022/10/30 21:39:59;;;;;;;88.35;49.10;;;11.30;99.90;;;;;;10394695;28;20401;-79
2022/10/30 21:44:59;;;;;;;73.32;42.70;;;11.30;99.90;;;;;;10395189;28;20064;-80
2022/10/30 21:50:00;;;;;;;93.43;51.40;;;11.30;99.90;;;;;;10399475;28;20083;-78
2022/10/30 21:55:01;;;;;;;101.13;61.55;;;11.30;99.90;;;;;;10397577;28;20034;-81
2022/10/30 22:00:02;;;;;;;91.45;51.95;;;11.20;99.90;;;;;;10401097;28;20029;-78
2022/10/30 22:05:03;;;;;;;80.97;48.65;;;11.20;99.90;;;;;;10405531;28;20128;-79
2022/10/30 22:10:04;;;;;;;82.75;49.17;;;11.40;99.90;;;;;;10399460;28;20059;-79
2022/10/30 22:15:05;;;;;;;69.15;41.95;;;11.50;99.90;;;;;;10400197;28;20175;-77
2022/10/30 22:20:07;;;;;;;72.90;41.35;;;11.60;99.90;;;;;;10400659;28;20112;-77
2022/10/30 22:25:07;;;;;;;75.68;45.80;;;11.60;99.90;;;;;;10399384;28;20150;-78
2022/10/30 22:30:08;;;;;;;68.47;41.92;;;11.60;99.90;;;;;;10392838;28;20112;-79
2022/10/30 22:35:09;;;;;;;76.60;46.40;;;11.60;99.90;;;;;;10398745;28;20048;-79
2022/10/30 22:40:09;;;;;;;71.80;42.40;;;11.50;99.90;;;;;;10399084;28;20030;-79
2022/10/30 22:45:10;;;;;;;74.35;44.35;;;11.40;99.90;;;;;;10397297;28;20092;-78
2022/10/30 22:50:11;;;;;;;81.00;48.47;;;11.30;99.90;;;;;;10397253;28;20026;-79
2022/10/30 22:55:11;;;;;;;78.32;47.05;;;11.20;99.90;;;;;;10392690;28;20026;-78
2022/10/30 23:00:12;;;;;;;91.32;51.97;;;11.20;99.90;;;;;;10400914;28;20029;-79
2022/10/30 23:05:13;;;;;;;94.35;55.28;;;11.10;99.90;;;;;;10399095;28;20224;-79
2022/10/30 23:10:13;;;;;;;87.47;47.92;;;11.10;99.90;;;;;;10393955;28;20164;-79
2022/10/30 23:15:14;;;;;;;95.13;49.85;;;11.00;99.90;;;;;;10399971;28;20037;-77
2022/10/30 23:20:15;;;;;;;88.63;49.40;;;11.00;99.90;;;;;;10399341;28;20087;-78
2022/10/30 23:25:15;;;;;;;85.22;47.78;;;10.90;99.90;;;;;;10399236;28;20037;-80
2022/10/30 23:30:16;;;;;;;94.70;49.97;;;10.90;99.90;;;;;;10401810;28;20029;-79
2022/10/30 23:35:17;;;;;;;96.85;50.10;;;10.90;99.90;;;;;;10396136;28;20041;-80
2022/10/30 23:40:18;;;;;;;89.65;48.20;;;10.80;99.90;;;;;;10400124;28;20042;-81
2022/10/30 23:45:19;;;;;;;90.50;47.35;;;10.70;99.90;;;;;;10395331;28;20042;-79
2022/10/30 23:50:19;;;;;;;78.07;44.60;;;10.60;99.90;;;;;;10396857;28;20413;-80
2022/10/30 23:55:20;;;;;;;92.47;50.35;;;10.50;99.90;;;;;;10393818;28;20030;-79
